Monday, December 18, 2017, 5:17 PM EST
Back to Local

KHGR, Hagerstown Regional Airport

Location: Hagerstown, MD, United States Lat: 39.7
Local Time: 5:17 PM EST (22:17 GMT) Lon: -77.733
Time Zone: US/Eastern Elev: 705 ft

Show me the last for .
Show Decoded

2017-12-18 16:53 METAR KHGR 182153Z 00000KT 10SM OVC042 09/03 A2997 RMK AO2 SLP161 T00940028 =
2017-12-18 15:53 METAR KHGR 182053Z 24003KT 10SM OVC039 10/03 A2998 RMK AO2 SLP166 T01000028
                 55008 TSNO =
2017-12-18 14:53 METAR KHGR 181953Z 18004KT 9SM SCT029 OVC040 09/03 A2998 RMK AO2 SLP164
                 T00940028 =
2017-12-18 13:53 METAR KHGR 181853Z 19003KT 7SM OVC033 09/02 A3000 RMK AO2 SLP173 T00940017 =
2017-12-18 12:53 METAR KHGR 181753Z 00000KT 5SM HZ SCT028 09/02 A3001 RMK AO2 SLP175 T00940017
                 10094 20022 56034 =
2017-12-18 12:32 METAR KHGR 181732Z 00000KT 5SM HZ BKN028 09/01 A3002 RMK AO2 T00940011 =
2017-12-18 11:53 METAR KHGR 181653Z 10003KT 5SM HZ BKN047 07/01 A3003 RMK AO2 SLP182 T00720006 =
2017-12-18 10:53 METAR KHGR 181553Z 00000KT 4SM HZ OVC046 06/00 A3009 RMK AO2 SLP202 T00560000 =
2017-12-18 09:53 METAR KHGR 181453Z 00000KT 4SM HZ BKN045 OVC050 04/00 A3011 RMK AO2 SLP211
                 T00390000 50002 =
2017-12-18 08:53 METAR KHGR 181353Z 00000KT 3SM HZ OVC050 03/M01 A3011 RMK AO2 SLP212 T00281006 =
2017-12-18 07:53 METAR KHGR 181253Z 00000KT 3SM HZ OVC055 02/M01 A3011 RMK AO2 SLP212 T00221011 =
2017-12-18 06:53 METAR KHGR 181153Z 00000KT 5SM HZ OVC060 02/M01 A3010 RMK AO2 SLP209 T00221011
                 10033 20022 55000 =
2017-12-18 05:53 METAR KHGR 181053Z AUTO 00000KT 5SM HZ OVC060 02/M01 A3010 RMK AO2 SLP207
                 T00221011 TSNO =
2017-12-18 04:53 METAR KHGR 180953Z AUTO 34004KT 5SM HZ BKN048 OVC070 02/M01 A3010 RMK AO2 SLP205
                 T00221006 TSNO =
2017-12-18 03:53 METAR KHGR 180853Z AUTO 00000KT 5SM HZ OVC046 03/M01 A3010 RMK AO2 SLP208
                 T00281006 56002 TSNO =
2017-12-18 02:53 METAR KHGR 180753Z AUTO 30004KT 5SM HZ OVC050 03/M01 A3010 RMK AO2 SLP208
                 T00281006 TSNO =
2017-12-18 01:53 METAR KHGR 180653Z AUTO 34005KT 5SM HZ OVC048 03/M01 A3010 RMK AO2 SLP208
                 T00281006 TSNO =
2017-12-18 00:53 METAR KHGR 180553Z AUTO 34006KT 5SM HZ OVC050 03/M01 A3011 RMK AO2 SLP210
                 T00281011 10056 20028 58007 TSNO =
2017-12-17 23:53 METAR KHGR 180453Z AUTO 31006KT 5SM HZ OVC070 03/M01 A3013 RMK AO2 SLP217
                 T00281006 400891011 TSNO =
2017-12-17 22:53 METAR KHGR 180353Z AUTO 00000KT 5SM HZ OVC080 04/M01 A3013 RMK AO2 SLP216
                 T00391006 TSNO =
2017-12-17 21:53 METAR KHGR 180253Z 32007KT 6SM HZ OVC090 03/M01 A3013 RMK AO2 SLP218 T00331006
                 58011 =
2017-12-17 20:53 METAR KHGR 180153Z 31004KT 7SM OVC090 04/00 A3014 RMK AO2 SLP223 T00390000 =
2017-12-17 19:53 METAR KHGR 180053Z 07006KT 7SM OVC100 06/M01 A3015 RMK AO2 SLP227 T00561006 =
2017-12-17 18:53 METAR KHGR 172353Z 00000KT 6SM HZ FEW060 OVC110 04/01 A3016 RMK AO2 SLP231 60000
                 T00440006 10089 20044 50003 =
2017-12-17 17:53 METAR KHGR 172253Z 36007KT 7SM OVC060 06/01 A3018 RMK AO2 RAE10 SLP236 P0000
                 T00560006 =

Support USWX by starting your Amazon purchase here.